Beavercreek, OR

4:06 AM PDT on March 29, 2015 (GMT -0700)
Beavercreek | | Change Station
CLOSE
Current Station
Personal Weather Station
Location: Beavercreek, OR
Elevation: 699 ft
Nearby Weather Stations

Elev 699 ft 45.26 °N, 122.50 °W | Updated 6 minutes ago

Partly Cloudy
Partly Cloudy
40.6 °F
Feels Like 41 °F
N
1.7
Wind Variable Wind from ESE

Today
High -- | Low -- °F
--% Chance of Precip.
Yesterday
High -- | Low -- °F
Precip. -- in
6:56 AM 7:33 PM
Waxing Gibbous, 70% visible
Pressure 30.31 in
Visibility 10.0 miles
Clouds Scattered Clouds 10000 ft
Windchill 41 °F
Dew Point 40 °F
Humidity 99%
Rainfall 0.00 in
Snow Depth Not available.
UV 0 out of 12
Pollen 4.80 out of 12
Air Quality Not available.
Flu Activity Not available.
METAR KUAO 291053Z AUTO 00000KT 10SM SCT100 08/06 A3031 RMK AO2 SLP264 T00780061

More Conditions Fewer Conditions

Pressure 30.31 in
Visibility 10.0 miles
Clouds Scattered Clouds 10000 ft
Windchill 41 °F
Dew Point 40 °F
Humidity 99%
Rainfall 0.00 in
Snow Depth Not available.
UV 0 out of 12
Pollen 4.80 out of 12
Air Quality Not available.
Flu Activity Not available.
METAR KUAO 291053Z AUTO 00000KT 10SM SCT100 08/06 A3031 RMK AO2 SLP264 T00780061

More Conditions Fewer Conditions

10-Day Weather Forecast

Almanac

Astronomy

Mar. 29, 2015 Rise Set
Actual Time
Civil Twilight
Nautical Twilight
Astronomical Twilight
Moon
Length of Visible Light
Length of Day
Tomorrow will be .
, % of the Moon is Illuminated

Today's Extremes

State Highs State Lows

Community

WunderPhotos

Upload Photos

1,809,214 photos uploaded!

WunderBlogs® & News

Nearby

Air Quality

  Air Quality AQ Index Pollutant
Not available.

Snow Depth

Station Depth Elevation

Earthquake Activity

City Distance Mag. Time & Date
Minimum magnitude displayed is 2.5.

Coastal Water Temperatures

Place Temperature

Stations

Nearby Weather Stations

Station Location Temp. Windchill Dew Point Humidity Wind Precip. Elev Updated Type